Hafnia Crux — OUNI2 — position and weather

sailwx.info

Track history (hours):
 
Tides and Currents Weather Stations Pressure Air Temp Water Temp Dewpoint Dewpoint Depression Visibility Wind Speed Wind Dir Waves Ship Positions

Hafnia Crux

Last reported at 2018-Jun-23 02:29 UTC. Time now 2018-Jun-23 02:56 UTC.
Position N 70°41' E 023°36'.

Length 183 m; draft 6.8 m.

Type: Ship. MMSI: 219398000.

Date/timePositionNaut miles runAvg speedWind from/ knotsBaromVisibWave heightAir tempDewpointWater temp
2018-Jun-23 02:29N 70°41' E 023°36'0 0.0
2018-Jun-23 01:59N 70°41' E 023°36'0 0.0
2018-Jun-23 01:29N 70°41' E 023°36'0 0.0
2018-Jun-23 00:59N 70°41' E 023°36'0 0.0
2018-Jun-23 00:29N 70°41' E 023°36'0 0.0
2018-Jun-22 23:59N 70°41' E 023°36'0 0.0
2018-Jun-22 23:29N 70°41' E 023°36'0 0.0
2018-Jun-22 22:59N 70°41' E 023°36'0 0.0
2018-Jun-22 22:29N 70°41' E 023°36'0 0.0
2018-Jun-22 21:59N 70°41' E 023°36'0 0.0
2018-Jun-22 21:29N 70°41' E 023°36'0 0.5
2018-Jun-22 21:01N 70°41' E 023°36'4 7.7
2018-Jun-22 20:30N 70°41' E 023°24'0 0.0
2018-Jun-22 19:59N 70°41' E 023°24'0 0.0
2018-Jun-22 19:29N 70°41' E 023°24'0 0.0
2018-Jun-22 18:59N 70°41' E 023°24'0 0.1
2018-Jun-22 18:29N 70°41' E 023°24'0 0.3
2018-Jun-22 17:59N 70°41' E 023°24'0 0.2
2018-Jun-22 17:29N 70°41' E 023°24'0 0.0
2018-Jun-22 16:59N 70°41' E 023°24'0 0.0
2018-Jun-22 16:29N 70°41' E 023°24'0 0.2
2018-Jun-22 15:59N 70°41' E 023°24'0 0.1
2018-Jun-22 15:29N 70°41' E 023°24'0 0.0
2018-Jun-22 14:59N 70°41' E 023°24'0 0.0
2018-Jun-22 14:29N 70°41' E 023°24'0 0.0
2018-Jun-22 13:59N 70°41' E 023°24'0 0.0
2018-Jun-22 13:29N 70°41' E 023°24'0 0.1
2018-Jun-22 12:59N 70°41' E 023°24'0 0.1
2018-Jun-22 12:29N 70°41' E 023°24'0 0.3
2018-Jun-22 11:59N 70°41' E 023°24'0 0.0
2018-Jun-22 11:29N 70°41' E 023°24'0 0.0
2018-Jun-22 10:59N 70°41' E 023°24'0 0.0
2018-Jun-22 10:29N 70°41' E 023°24'0 0.1
2018-Jun-22 09:59N 70°41' E 023°24'0 0.0
2018-Jun-22 09:29N 70°41' E 023°24'0 0.1
2018-Jun-22 08:59N 70°41' E 023°24'0 0.1
2018-Jun-22 08:29N 70°41' E 023°24'0 0.1
2018-Jun-22 07:59N 70°41' E 023°24'0 0.0
2018-Jun-22 07:29N 70°41' E 023°24'0 0.0
2018-Jun-22 06:59N 70°41' E 023°24'0 0.0
2018-Jun-22 06:29N 70°41' E 023°24'0 0.0
2018-Jun-22 05:59N 70°41' E 023°24'0 0.1
2018-Jun-22 05:29N 70°41' E 023°24'0 0.1
2018-Jun-22 04:59N 70°41' E 023°24'0 0.1
2018-Jun-22 04:29N 70°41' E 023°24'0 0.1
2018-Jun-22 03:59N 70°41' E 023°24'0 0.0
2018-Jun-22 03:29N 70°41' E 023°24'0 0.1
2018-Jun-22 02:59N 70°41' E 023°24'0 0.2
2018-Jun-22 02:29N 70°41' E 023°24'0 0.0
2018-Jun-22 01:59N 70°41' E 023°24'0 0.3
2018-Jun-22 01:29N 70°41' E 023°24'0 0.1
2018-Jun-22 00:59N 70°41' E 023°24'0 0.2
2018-Jun-22 00:29N 70°41' E 023°24'0 0.2
2018-Jun-21 23:59N 70°41' E 023°24'0 0.1
2018-Jun-21 23:29N 70°41' E 023°24'0 0.0
2018-Jun-21 22:59N 70°41' E 023°24'0 0.0
2018-Jun-21 22:29N 70°41' E 023°24'0 0.0
2018-Jun-21 21:59N 70°41' E 023°24'0 0.1
2018-Jun-21 21:29N 70°41' E 023°24'0 0.0
2018-Jun-21 20:59N 70°41' E 023°24'0 0.1
2018-Jun-21 20:29N 70°41' E 023°24'0 0.1
2018-Jun-21 19:59N 70°41' E 023°24'1 2.9
2018-Jun-21 19:30N 70°42' E 023°26'510.1
2018-Jun-21 19:00N 70°47' E 023°33'612.3
2018-Jun-21 18:30N 70°53' E 023°33'713.1
2018-Jun-21 18:00N 70°59' E 023°34'611.7
2018-Jun-21 17:30N 71°05' E 023°30'4 8.5
2018-Jun-21 17:00N 71°08' E 023°22'5 9.0
2018-Jun-21 16:30N 71°13' E 023°18'3 5.0
2018-Jun-21 16:00N 71°13' E 023°26'3 5.8
2018-Jun-21 15:30N 71°14' E 023°34'0 0.9
2018-Jun-21 15:00N 71°14' E 023°33'2 3.4
2018-Jun-21 14:30N 71°13' E 023°29'1 1.4
2018-Jun-21 13:59N 71°13' E 023°28'2 4.2
2018-Jun-21 13:30N 71°12' E 023°21'2 3.8
2018-Jun-21 13:00N 71°11' E 023°16'2 3.8
2018-Jun-21 12:30N 71°11' E 023°10'4 7.3
2018-Jun-21 12:00N 71°09' E 023°01'3 5.0
2018-Jun-21 11:30N 71°10' E 023°08'3 5.6
2018-Jun-21 11:00N 71°11' E 023°16'3 5.7
2018-Jun-21 10:30N 71°12' E 023°24'3 5.5
2018-Jun-21 10:00N 71°13' E 023°32'2 4.5
2018-Jun-21 09:30N 71°15' E 023°37'2 3.9
2018-Jun-21 09:00N 71°14' E 023°31'2 4.7
2018-Jun-21 08:29N 71°13' E 023°24'2 4.7
2018-Jun-21 08:00N 71°12' E 023°18'2 4.9
2018-Jun-21 07:30N 71°11' E 023°11'3 5.1
2018-Jun-21 07:00N 71°10' E 023°04'1 1.1
2018-Jun-21 06:29N 71°10' E 023°04'2 4.7
2018-Jun-21 06:00N 71°11' E 023°11'2 4.6
2018-Jun-21 05:30N 71°11' E 023°17'1 1.6
2018-Jun-21 05:00N 71°11' E 023°19'3 5.9
2018-Jun-21 04:30N 71°08' E 023°18'3 5.2
2018-Jun-21 04:00N 71°06' E 023°15'2 4.6
2018-Jun-21 03:30N 71°06' E 023°08'5 9.6
2018-Jun-21 03:00N 71°08' E 022°54'612.7
2018-Jun-21 02:30N 71°10' E 022°36'  
2018-Jun-18 14:23N 60°56' E 004°15'513.7
2018-Jun-18 14:00N 60°54' E 004°26'4 8.8
2018-Jun-18 13:30N 60°51' E 004°33'510.7
2018-Jun-18 13:00N 60°51' E 004°44'5 9.3
2018-Jun-18 12:30N 60°51' E 004°54'5 8.9
2018-Jun-18 11:59N 60°50' E 005°03'0 1.0
2018-Jun-18 11:29N 60°51' E 005°04'0 0.0
2018-Jun-18 10:58N 60°51' E 005°04'0 0.0
2018-Jun-18 10:28N 60°51' E 005°04'0 0.0
2018-Jun-18 09:58N 60°51' E 005°04'0 0.0
2018-Jun-18 09:28N 60°51' E 005°04'0 0.0
2018-Jun-18 08:58N 60°51' E 005°04'0 0.0
2018-Jun-18 08:28N 60°51' E 005°04'0 0.0
2018-Jun-18 07:58N 60°51' E 005°04'0 0.0
2018-Jun-18 07:25N 60°51' E 005°04'0 0.0
2018-Jun-18 06:58N 60°51' E 005°04'0 0.0
2018-Jun-18 06:25N 60°51' E 005°04'0 0.0
2018-Jun-18 05:58N 60°51' E 005°04'0 0.0
2018-Jun-18 05:28N 60°51' E 005°04'0 0.0
2018-Jun-18 04:58N 60°51' E 005°04'0 0.0
2018-Jun-18 04:28N 60°51' E 005°04'0 0.0
2018-Jun-18 03:58N 60°51' E 005°04'0 0.0
2018-Jun-18 03:28N 60°51' E 005°04'0 0.0
2018-Jun-18 02:58N 60°51' E 005°04'0 0.0
2018-Jun-18 02:28N 60°51' E 005°04'0 0.0
2018-Jun-18 01:58N 60°51' E 005°04'0 0.0
2018-Jun-18 01:28N 60°51' E 005°04'0 0.0
2018-Jun-18 00:58N 60°51' E 005°04'0 0.0
2018-Jun-18 00:28N 60°51' E 005°04'0 0.0
2018-Jun-17 23:58N 60°51' E 005°04'0 0.0
2018-Jun-17 23:28N 60°51' E 005°04'0 0.0
2018-Jun-17 22:58N 60°51' E 005°04'0 0.0
2018-Jun-17 22:28N 60°51' E 005°04'0 0.0
2018-Jun-17 21:58N 60°51' E 005°04'0 0.0
2018-Jun-17 21:28N 60°51' E 005°04'0 0.0
2018-Jun-17 20:58N 60°51' E 005°04'0 0.0
2018-Jun-17 20:28N 60°51' E 005°04'0 0.0
2018-Jun-17 19:58N 60°51' E 005°04'0 0.0
2018-Jun-17 19:28N 60°51' E 005°04'0 0.0
2018-Jun-17 18:58N 60°51' E 005°04'0 0.0
2018-Jun-17 18:28N 60°51' E 005°04'0 0.0
2018-Jun-17 17:58N 60°51' E 005°04'0 0.0
2018-Jun-17 17:28N 60°51' E 005°04'0 0.0
2018-Jun-17 16:58N 60°51' E 005°04'0 0.0
2018-Jun-17 16:28N 60°51' E 005°04'0 0.0
2018-Jun-17 15:58N 60°51' E 005°04'0 0.0
2018-Jun-17 15:28N 60°51' E 005°04'0 0.0
2018-Jun-17 14:58N 60°51' E 005°04'0 0.0
2018-Jun-17 14:28N 60°51' E 005°04'0 0.0
2018-Jun-17 13:58N 60°51' E 005°04'0 0.0
2018-Jun-17 13:28N 60°51' E 005°04'0 0.0
2018-Jun-17 12:58N 60°51' E 005°04'0 0.0
2018-Jun-17 12:28N 60°51' E 005°04'0 0.0
2018-Jun-17 11:58N 60°51' E 005°04'0 0.0
2018-Jun-17 11:28N 60°51' E 005°04'0 0.0
2018-Jun-17 10:58N 60°51' E 005°04'0 0.0
2018-Jun-17 10:28N 60°51' E 005°04'0 0.0
2018-Jun-17 09:58N 60°51' E 005°04'0 0.0
2018-Jun-17 09:28N 60°51' E 005°04'0 0.0
2018-Jun-17 08:58N 60°51' E 005°04'0 0.0
2018-Jun-17 08:28N 60°51' E 005°04'0 0.0
2018-Jun-17 07:58N 60°51' E 005°04'0 0.0
2018-Jun-17 07:28N 60°51' E 005°04'0 0.0
2018-Jun-17 06:58N 60°51' E 005°04'0 0.0
2018-Jun-17 06:28N 60°51' E 005°04'0 0.0
2018-Jun-17 05:58N 60°51' E 005°04'0 0.0
2018-Jun-17 05:28N 60°51' E 005°04'0 0.0
2018-Jun-17 04:55N 60°51' E 005°04'0 0.0
2018-Jun-17 04:28N 60°51' E 005°04'0 0.0
2018-Jun-17 03:58N 60°51' E 005°04'0 0.1
2018-Jun-17 03:30N 60°51' E 005°04'1 1.8
2018-Jun-17 03:00N 60°50' E 005°02'4 8.1
2018-Jun-17 02:30N 60°51' E 004°54'510.5
2018-Jun-17 02:00N 60°51' E 004°43'510.0
2018-Jun-17 01:31N 60°51' E 004°33'3 6.6
2018-Jun-17 00:59N 60°51' E 004°26'5 9.7
2018-Jun-17 00:30N 60°54' E 004°18'  
Track history (hours):
 
Tides and Currents Weather Stations Pressure Air Temp Water Temp Dewpoint Dewpoint Depression Visibility Wind Speed Wind Dir Waves Ship Positions

Hafnia Crux

Last reported at 2018-Jun-23 02:29 UTC. Time now 2018-Jun-23 02:56 UTC.
Position N 70°41' E 023°36'.

Length 183 m; draft 6.8 m.

Type: Ship. MMSI: 219398000.

Date/timePositionNaut miles runAvg speedWind from/ knotsBaromVisibWave heightAir tempDewpointWater temp
2018-Jun-23 02:29N 70°41' E 023°36'0 0.0
2018-Jun-23 01:59N 70°41' E 023°36'0 0.0
2018-Jun-23 01:29N 70°41' E 023°36'0 0.0
2018-Jun-23 00:59N 70°41' E 023°36'0 0.0
2018-Jun-23 00:29N 70°41' E 023°36'0 0.0
2018-Jun-22 23:59N 70°41' E 023°36'0 0.0
2018-Jun-22 23:29N 70°41' E 023°36'0 0.0
2018-Jun-22 22:59N 70°41' E 023°36'0 0.0
2018-Jun-22 22:29N 70°41' E 023°36'0 0.0
2018-Jun-22 21:59N 70°41' E 023°36'0 0.0
2018-Jun-22 21:29N 70°41' E 023°36'0 0.5
2018-Jun-22 21:01N 70°41' E 023°36'4 7.7
2018-Jun-22 20:30N 70°41' E 023°24'0 0.0
2018-Jun-22 19:59N 70°41' E 023°24'0 0.0
2018-Jun-22 19:29N 70°41' E 023°24'0 0.0
2018-Jun-22 18:59N 70°41' E 023°24'0 0.1
2018-Jun-22 18:29N 70°41' E 023°24'0 0.3
2018-Jun-22 17:59N 70°41' E 023°24'0 0.2
2018-Jun-22 17:29N 70°41' E 023°24'0 0.0
2018-Jun-22 16:59N 70°41' E 023°24'0 0.0
2018-Jun-22 16:29N 70°41' E 023°24'0 0.2
2018-Jun-22 15:59N 70°41' E 023°24'0 0.1
2018-Jun-22 15:29N 70°41' E 023°24'0 0.0
2018-Jun-22 14:59N 70°41' E 023°24'0 0.0
2018-Jun-22 14:29N 70°41' E 023°24'0 0.0
2018-Jun-22 13:59N 70°41' E 023°24'0 0.0
2018-Jun-22 13:29N 70°41' E 023°24'0 0.1
2018-Jun-22 12:59N 70°41' E 023°24'0 0.1
2018-Jun-22 12:29N 70°41' E 023°24'0 0.3
2018-Jun-22 11:59N 70°41' E 023°24'0 0.0
2018-Jun-22 11:29N 70°41' E 023°24'0 0.0
2018-Jun-22 10:59N 70°41' E 023°24'0 0.0
2018-Jun-22 10:29N 70°41' E 023°24'0 0.1
2018-Jun-22 09:59N 70°41' E 023°24'0 0.0
2018-Jun-22 09:29N 70°41' E 023°24'0 0.1
2018-Jun-22 08:59N 70°41' E 023°24'0 0.1
2018-Jun-22 08:29N 70°41' E 023°24'0 0.1
2018-Jun-22 07:59N 70°41' E 023°24'0 0.0
2018-Jun-22 07:29N 70°41' E 023°24'0 0.0
2018-Jun-22 06:59N 70°41' E 023°24'0 0.0
2018-Jun-22 06:29N 70°41' E 023°24'0 0.0
2018-Jun-22 05:59N 70°41' E 023°24'0 0.1
2018-Jun-22 05:29N 70°41' E 023°24'0 0.1
2018-Jun-22 04:59N 70°41' E 023°24'0 0.1
2018-Jun-22 04:29N 70°41' E 023°24'0 0.1
2018-Jun-22 03:59N 70°41' E 023°24'0 0.0
2018-Jun-22 03:29N 70°41' E 023°24'0 0.1
2018-Jun-22 02:59N 70°41' E 023°24'0 0.2
2018-Jun-22 02:29N 70°41' E 023°24'0 0.0
2018-Jun-22 01:59N 70°41' E 023°24'0 0.3
2018-Jun-22 01:29N 70°41' E 023°24'0 0.1
2018-Jun-22 00:59N 70°41' E 023°24'0 0.2
2018-Jun-22 00:29N 70°41' E 023°24'0 0.2
2018-Jun-21 23:59N 70°41' E 023°24'0 0.1
2018-Jun-21 23:29N 70°41' E 023°24'0 0.0
2018-Jun-21 22:59N 70°41' E 023°24'0 0.0
2018-Jun-21 22:29N 70°41' E 023°24'0 0.0
2018-Jun-21 21:59N 70°41' E 023°24'0 0.1
2018-Jun-21 21:29N 70°41' E 023°24'0 0.0
2018-Jun-21 20:59N 70°41' E 023°24'0 0.1
2018-Jun-21 20:29N 70°41' E 023°24'0 0.1
2018-Jun-21 19:59N 70°41' E 023°24'1 2.9
2018-Jun-21 19:30N 70°42' E 023°26'510.1
2018-Jun-21 19:00N 70°47' E 023°33'612.3
2018-Jun-21 18:30N 70°53' E 023°33'713.1
2018-Jun-21 18:00N 70°59' E 023°34'611.7
2018-Jun-21 17:30N 71°05' E 023°30'4 8.5
2018-Jun-21 17:00N 71°08' E 023°22'5 9.0
2018-Jun-21 16:30N 71°13' E 023°18'3 5.0
2018-Jun-21 16:00N 71°13' E 023°26'3 5.8
2018-Jun-21 15:30N 71°14' E 023°34'0 0.9
2018-Jun-21 15:00N 71°14' E 023°33'2 3.4
2018-Jun-21 14:30N 71°13' E 023°29'1 1.4
2018-Jun-21 13:59N 71°13' E 023°28'2 4.2
2018-Jun-21 13:30N 71°12' E 023°21'2 3.8
2018-Jun-21 13:00N 71°11' E 023°16'2 3.8
2018-Jun-21 12:30N 71°11' E 023°10'4 7.3
2018-Jun-21 12:00N 71°09' E 023°01'3 5.0
2018-Jun-21 11:30N 71°10' E 023°08'3 5.6
2018-Jun-21 11:00N 71°11' E 023°16'3 5.7
2018-Jun-21 10:30N 71°12' E 023°24'3 5.5
2018-Jun-21 10:00N 71°13' E 023°32'2 4.5
2018-Jun-21 09:30N 71°15' E 023°37'2 3.9
2018-Jun-21 09:00N 71°14' E 023°31'2 4.7
2018-Jun-21 08:29N 71°13' E 023°24'2 4.7
2018-Jun-21 08:00N 71°12' E 023°18'2 4.9
2018-Jun-21 07:30N 71°11' E 023°11'3 5.1
2018-Jun-21 07:00N 71°10' E 023°04'1 1.1
2018-Jun-21 06:29N 71°10' E 023°04'2 4.7
2018-Jun-21 06:00N 71°11' E 023°11'2 4.6
2018-Jun-21 05:30N 71°11' E 023°17'1 1.6
2018-Jun-21 05:00N 71°11' E 023°19'3 5.9
2018-Jun-21 04:30N 71°08' E 023°18'3 5.2
2018-Jun-21 04:00N 71°06' E 023°15'2 4.6
2018-Jun-21 03:30N 71°06' E 023°08'5 9.6
2018-Jun-21 03:00N 71°08' E 022°54'612.7
2018-Jun-21 02:30N 71°10' E 022°36'  
2018-Jun-18 14:23N 60°56' E 004°15'513.7
2018-Jun-18 14:00N 60°54' E 004°26'4 8.8
2018-Jun-18 13:30N 60°51' E 004°33'510.7
2018-Jun-18 13:00N 60°51' E 004°44'5 9.3
2018-Jun-18 12:30N 60°51' E 004°54'5 8.9
2018-Jun-18 11:59N 60°50' E 005°03'0 1.0
2018-Jun-18 11:29N 60°51' E 005°04'0 0.0
2018-Jun-18 10:58N 60°51' E 005°04'0 0.0
2018-Jun-18 10:28N 60°51' E 005°04'0 0.0
2018-Jun-18 09:58N 60°51' E 005°04'0 0.0
2018-Jun-18 09:28N 60°51' E 005°04'0 0.0
2018-Jun-18 08:58N 60°51' E 005°04'0 0.0
2018-Jun-18 08:28N 60°51' E 005°04'0 0.0
2018-Jun-18 07:58N 60°51' E 005°04'0 0.0
2018-Jun-18 07:25N 60°51' E 005°04'0 0.0
2018-Jun-18 06:58N 60°51' E 005°04'0 0.0
2018-Jun-18 06:25N 60°51' E 005°04'0 0.0
2018-Jun-18 05:58N 60°51' E 005°04'0 0.0
2018-Jun-18 05:28N 60°51' E 005°04'0 0.0
2018-Jun-18 04:58N 60°51' E 005°04'0 0.0
2018-Jun-18 04:28N 60°51' E 005°04'0 0.0
2018-Jun-18 03:58N 60°51' E 005°04'0 0.0
2018-Jun-18 03:28N 60°51' E 005°04'0 0.0
2018-Jun-18 02:58N 60°51' E 005°04'0 0.0
2018-Jun-18 02:28N 60°51' E 005°04'0 0.0
2018-Jun-18 01:58N 60°51' E 005°04'0 0.0
2018-Jun-18 01:28N 60°51' E 005°04'0 0.0
2018-Jun-18 00:58N 60°51' E 005°04'0 0.0
2018-Jun-18 00:28N 60°51' E 005°04'0 0.0
2018-Jun-17 23:58N 60°51' E 005°04'0 0.0
2018-Jun-17 23:28N 60°51' E 005°04'0 0.0
2018-Jun-17 22:58N 60°51' E 005°04'0 0.0
2018-Jun-17 22:28N 60°51' E 005°04'0 0.0
2018-Jun-17 21:58N 60°51' E 005°04'0 0.0
2018-Jun-17 21:28N 60°51' E 005°04'0 0.0
2018-Jun-17 20:58N 60°51' E 005°04'0 0.0
2018-Jun-17 20:28N 60°51' E 005°04'0 0.0
2018-Jun-17 19:58N 60°51' E 005°04'0 0.0
2018-Jun-17 19:28N 60°51' E 005°04'0 0.0
2018-Jun-17 18:58N 60°51' E 005°04'0 0.0
2018-Jun-17 18:28N 60°51' E 005°04'0 0.0
2018-Jun-17 17:58N 60°51' E 005°04'0 0.0
2018-Jun-17 17:28N 60°51' E 005°04'0 0.0
2018-Jun-17 16:58N 60°51' E 005°04'0 0.0
2018-Jun-17 16:28N 60°51' E 005°04'0 0.0
2018-Jun-17 15:58N 60°51' E 005°04'0 0.0
2018-Jun-17 15:28N 60°51' E 005°04'0 0.0
2018-Jun-17 14:58N 60°51' E 005°04'0 0.0
2018-Jun-17 14:28N 60°51' E 005°04'0 0.0
2018-Jun-17 13:58N 60°51' E 005°04'0 0.0
2018-Jun-17 13:28N 60°51' E 005°04'0 0.0
2018-Jun-17 12:58N 60°51' E 005°04'0 0.0
2018-Jun-17 12:28N 60°51' E 005°04'0 0.0
2018-Jun-17 11:58N 60°51' E 005°04'0 0.0
2018-Jun-17 11:28N 60°51' E 005°04'0 0.0
2018-Jun-17 10:58N 60°51' E 005°04'0 0.0
2018-Jun-17 10:28N 60°51' E 005°04'0 0.0
2018-Jun-17 09:58N 60°51' E 005°04'0 0.0
2018-Jun-17 09:28N 60°51' E 005°04'0 0.0
2018-Jun-17 08:58N 60°51' E 005°04'0 0.0
2018-Jun-17 08:28N 60°51' E 005°04'0 0.0
2018-Jun-17 07:58N 60°51' E 005°04'0 0.0
2018-Jun-17 07:28N 60°51' E 005°04'0 0.0
2018-Jun-17 06:58N 60°51' E 005°04'0 0.0
2018-Jun-17 06:28N 60°51' E 005°04'0 0.0
2018-Jun-17 05:58N 60°51' E 005°04'0 0.0
2018-Jun-17 05:28N 60°51' E 005°04'0 0.0
2018-Jun-17 04:55N 60°51' E 005°04'0 0.0
2018-Jun-17 04:28N 60°51' E 005°04'0 0.0
2018-Jun-17 03:58N 60°51' E 005°04'0 0.1
2018-Jun-17 03:30N 60°51' E 005°04'1 1.8
2018-Jun-17 03:00N 60°50' E 005°02'4 8.1
2018-Jun-17 02:30N 60°51' E 004°54'510.5
2018-Jun-17 02:00N 60°51' E 004°43'510.0
2018-Jun-17 01:31N 60°51' E 004°33'3 6.6
2018-Jun-17 00:59N 60°51' E 004°26'5 9.7
2018-Jun-17 00:30N 60°54' E 004°18'  

Dump ship's entire track history